createdAt,value
2022-07-29T00:09:26.480Z,101530.91
2022-07-29T00:19:41.201Z,101524.63
2022-07-29T00:30:00.006Z,101526.44
2022-07-29T00:40:02.192Z,101536.63
2022-07-29T00:50:11.180Z,101560.19
2022-07-29T01:00:24.608Z,101541.44
2022-07-29T01:10:25.922Z,101498.06
2022-07-29T01:20:31.935Z,101493.16
2022-07-29T01:30:38.318Z,101455.41
2022-07-29T01:40:44.387Z,101439.94
2022-07-29T01:50:50.615Z,101430.03
2022-07-29T02:01:07.050Z,101451.63
2022-07-29T02:11:13.567Z,101432.97
2022-07-29T02:21:22.548Z,101434.25
2022-07-29T02:31:28.305Z,101427.16
2022-07-29T02:41:30.668Z,101431.84
2022-07-29T03:01:59.470Z,101432.63
2022-07-29T03:22:19.785Z,101440.22
2022-07-29T03:32:34.670Z,101431.69
2022-07-29T03:42:36.000Z,101429.88
2022-07-29T03:52:37.535Z,101429.88
2022-07-29T04:02:38.972Z,101431.38
2022-07-29T04:12:40.256Z,101418.47
2022-07-29T04:22:41.540Z,101414.25
2022-07-29T04:32:45.652Z,101420.06
2022-07-29T04:42:47.782Z,101433.28
2022-07-29T04:52:49.319Z,101459.97
2022-07-29T05:02:50.651Z,101476.06
2022-07-29T05:23:22.257Z,101485.34
2022-07-29T05:33:35.044Z,101477.06
2022-07-29T05:43:40.059Z,101480.03
2022-07-29T05:53:41.367Z,101481.84
2022-07-29T06:03:42.685Z,101481.94
2022-07-29T06:13:44.039Z,101483.28
2022-07-29T06:23:45.357Z,101487.41
2022-07-29T06:33:46.631Z,101478.56
2022-07-29T06:43:51.880Z,101497.28
2022-07-29T06:53:59.794Z,101496.50
2022-07-29T07:04:04.421Z,101501.78
2022-07-29T07:14:05.696Z,101513.94
2022-07-29T07:24:10.230Z,101517.25
2022-07-29T07:34:11.619Z,101518.97
2022-07-29T07:44:19.831Z,101515.91
2022-07-29T08:04:50.248Z,101519.63
2022-07-29T08:14:51.545Z,101517.84
2022-07-29T08:24:59.285Z,101527.84
2022-07-29T08:35:07.527Z,101529.22
2022-07-29T08:45:16.307Z,101538.03
2022-07-29T08:55:24.301Z,101535.75
2022-07-29T09:05:27.467Z,101535.25
2022-07-29T09:15:35.748Z,101535.75
2022-07-29T09:25:44.440Z,101536.22
2022-07-29T09:35:56.539Z,101537.50
2022-07-29T09:46:01.324Z,101545.06
2022-07-29T09:56:03.184Z,101533.91
2022-07-29T10:16:25.201Z,101532.31
2022-07-29T10:26:34.020Z,101526.66
2022-07-29T10:36:35.652Z,101521.31
2022-07-29T10:46:41.266Z,101520.25
2022-07-29T10:56:43.255Z,101515.66
2022-07-29T11:06:45.585Z,101522.25
2022-07-29T11:16:50.385Z,101505.75
2022-07-29T11:26:52.223Z,101513.28
2022-07-29T11:36:53.504Z,101505.38
2022-07-29T11:46:54.819Z,101513.72
2022-07-29T11:56:57.322Z,101516.97
2022-07-29T12:17:06.669Z,101515.44
2022-07-29T12:27:12.143Z,101520.91
2022-07-29T12:37:20.311Z,101527.63
2022-07-29T12:47:47.365Z,101511.53
2022-07-29T12:57:48.958Z,101508.03
2022-07-29T13:07:55.894Z,101502.16
2022-07-29T13:18:02.941Z,101507.75
2022-07-29T13:28:04.227Z,101509.78
2022-07-29T13:38:07.145Z,101494.31
2022-07-29T13:48:16.364Z,101503.44
2022-07-29T13:58:25.351Z,101509.25
2022-07-29T14:08:35.356Z,101512.06
2022-07-29T14:18:43.347Z,101505.41
2022-07-29T14:28:51.495Z,101496.28
2022-07-29T14:39:00.260Z,101502.38
2022-07-29T14:59:33.490Z,101490.69
2022-07-29T15:09:36.228Z,101492.44
2022-07-29T15:19:44.779Z,101498.75
2022-07-29T15:29:51.587Z,101501.28
2022-07-29T15:39:55.948Z,101500.75
2022-07-29T15:49:59.698Z,101509.34
2022-07-29T16:00:04.444Z,101501.28
2022-07-29T16:31:10.368Z,101495.16
2022-07-29T16:41:18.396Z,101495.91
2022-07-29T16:51:26.347Z,101494.41
2022-07-29T17:01:34.424Z,101498.19
2022-07-29T17:11:52.402Z,101505.28
2022-07-29T17:53:30.224Z,101525.84
2022-07-29T18:03:31.525Z,101529.16
2022-07-29T18:13:39.404Z,101540.78
2022-07-29T18:23:47.452Z,101542.09
2022-07-29T18:33:59.723Z,101547.16
2022-07-29T19:15:05.832Z,101572.06
2022-07-29T19:25:15.993Z,101579.00
2022-07-29T19:35:17.447Z,101593.50
2022-07-29T19:45:18.747Z,101599.38
2022-07-29T19:55:20.045Z,101621.28
2022-07-29T20:05:27.839Z,101636.31
2022-07-29T20:15:29.612Z,101643.69
2022-07-29T20:25:30.873Z,101651.78
2022-07-29T20:35:32.156Z,101655.78
2022-07-29T20:45:33.468Z,101661.91
2022-07-29T20:55:34.810Z,101667.97
2022-07-29T21:05:36.203Z,101664.69
2022-07-29T21:15:37.657Z,101668.31
2022-07-29T21:25:38.971Z,101671.88
2022-07-29T21:36:14.930Z,101670.34
2022-07-29T21:46:01.744Z,101671.63
2022-07-29T21:56:03.224Z,101672.16
2022-07-29T22:06:07.227Z,101665.06
2022-07-29T22:16:08.519Z,101654.91
2022-07-29T22:26:09.770Z,101654.91
2022-07-29T22:36:11.048Z,101670.16
2022-07-29T22:46:12.553Z,101665.31
2022-07-29T22:56:13.900Z,101675.47
2022-07-29T23:06:15.171Z,101677.28
2022-07-29T23:16:16.657Z,101678.31
2022-07-29T23:26:28.232Z,101691.53
2022-07-29T23:36:29.501Z,101686.69
2022-07-29T23:46:30.784Z,101685.41
2022-07-29T23:56:32.125Z,101672.47
